Welcome to our Virtual Airline
Sign-in:

Flight MFCT00030-6A0

  • Submitted By: Jim Ryan
  • Departure Airport: Point Baker SPB (KPB)
  • Arrival Airport: Cape Pole SPB (Z71)
  • Aircraft: DHC2 BEAVERA (N001MM)
  • Flight Time: 00.25.55
  • Date Submitted: 2018/08/15
  • Route: TF04 EDA
  • Status: Accepted
Flight Details
Gross Revenue:
(5 load / $ 49.00 per unit
$ 245.00
Fuel Cost:
(44.4521 fuel used @ 5.1 / unit)
$ 226.71

Additional Log Information:

View Log

FS[11:13] ----- Flight Opened -----
FS[11:13] Cigar Box - 1.1.4.0
FS[11:13] FS: FSX
FS[11:13] FSUIPC: v4.955
FS[11:13] Flight Number: MFCT00030-6A0
FS[11:13] FS Aircraft: DHC-2A N001MM New Misty Amphibian
FS[11:13] FS Model: DHC2
FS[11:13] FS Type: DH Beaver
FS[11:13] Departure: KPB
FS[11:13] Arrival: Z71
FS[11:13] Flight Level: 1500
FS[11:13] Flight Type:
FS[11:13] Passengers: 5
FS[11:13] FOB: 331 lbs
FS[11:13] Distance to Departure: 0.13 miles
FS[11:13] Gate: n/a
FS[11:13] NOTE: Parking Brake Ignored
FS[11:13] Crash Detection: Disabled
FS[11:13] Crash Detection Aircraft: Disabled
FS[11:13] Engines: 1 Piston
FS[11:13] NOTE: Boarding has started
FS[11:13] Parking Brake: Engaged
FS[11:13] Landing Gear: Retracted
FS[11:13] Main Door Open
FS[11:13] COM1: 121.90
FS[11:13] COM2: 127.80
FS[11:13] Transponder: 1200
FS[11:13] NAV1: 117.90
FS[11:13] NAV2: 113.30
FS[11:13] ADF1: 890.0
FS[11:13] ADF2: 890.0
FS[11:13] Navigation Mode: GPS
FS[11:13] Navigation Mode: GPS
FS[11:13] Main Door Closed
FS[11:14] Engine 1: Started
FS[11:14] Light Data: Strobe lights ON
FS[11:14] Light Data: Navigation ON
FS[11:14] Light Data: Instrument lights ON
FS[11:14] Light Data: Beacon ON
FS[11:14] Flaps: Position 2
FS[11:15] Parking Brake: Released
FS[11:15] NOTE: Taxi started
FS[11:16] NOTE: ----- TAKE OFF -----
FS[11:16] GS: 62 knots
FS[11:16] TAS: 57 knots
FS[11:16] IAS: 59 knots
FS[11:16] VS: 6 fpm
FS[11:16] FOB: 569 lbs
FS[11:16] Heading: 328°
FS[11:16] Pitch: 3°
FS[11:16] Bank: 2°
FS[11:16] Aircraft Weight: 4229.62 lbs
FS[11:16] Nearest Airport: KPB
FS[11:16] Distance: 0.41 miles
FS[11:16] Runway: ???
FS[11:16] Ground Surface: Water
FS[11:16] Ground Condition: Normal
FS[11:16] NOTE: Weather Report
FS[11:16] Wind Heading: 133°
FS[11:16] Wind Speed: 5 knots
FS[11:16] OAT: 0° C
FS[11:16] TAT: 1° C
FS[11:16] Precipitation: None
FS[11:16] Dew Point: -3° C
FS[11:16] Visibility: 49 miles
FS[11:16] METAR: KPBF 151853Z AUTO 23007KT 10SM CLR 31/21 A3001 RMK AO2 SLP161 T03060206KPBG 151853Z AUTO 01008KT 10SM FEW022 FEW027 27/22 A2985 RMK AO2 RAE38 SLP107 P0001 T02670217KPBH 151935Z AUTO 02005KT 10SM BKN024 BKN034 25/21 A2996 RMK AO2 T02530207KPBI 151853Z 12010KT 10SM SCT030 SCT040 SCT250 31/24 A3010 RMK AO2 SLP193 T03110244KPBX 151935Z AUTO 24003KT 10SM CLR 28/18 A3012 RMK AO2 T02820180
FS[11:16] NOTE: Climb started
FS[11:16] Autopilot: Engaged
FS[11:16] AGL: 196 ft
FS[11:16] AMSL: 196 ft
FS[11:16] View Mode: Spot Plane
FS[11:16] Flaps: Position 1
FS[11:16] GS: 69 knots
FS[11:16] TAS: 67 knots
FS[11:16] IAS: 68 knots
FS[11:16] VS: 1331 fpm
FS[11:18] NOTE: TOC reached
FS[11:18] NOTE: Cruise started
FS[11:18] GS: 104 knots
FS[11:18] TAS: 114 knots
FS[11:18] IAS: 114 knots
FS[11:18] VS: 195 fpm
FS[11:18] FOB: 561 lbs
FS[11:18] Heading: 134°
FS[11:18] Pitch: 0°
FS[11:18] Bank: 5°
FS[11:18] Aircraft Weight: 4221.70 lbs
FS[11:19] Flaps: Position 0
FS[11:19] GS: 122 knots
FS[11:19] TAS: 130 knots
FS[11:19] IAS: 130 knots
FS[11:19] VS: -37 fpm
FS[11:19] NOTE: TOD reached
FS[11:19] NOTE: Descent started
FS[11:19] GS: 138 knots
FS[11:19] TAS: 146 knots
FS[11:19] IAS: 147 knots
FS[11:19] VS: -1367 fpm
FS[11:19] FOB: 556 lbs
FS[11:19] Heading: 125°
FS[11:19] Pitch: 4°
FS[11:19] Bank: -3°
FS[11:19] Aircraft Weight: 4216.04 lbs
FS[11:19] NOTE: On approach
FS[11:19] Recovery: Flight Saved
FS[11:26] Recovery: Flight Saved
FS[11:32] Recovery: Flight Saved
FS[11:36] Autopilot: Disengaged
FS[11:36] AGL: 308 ft
FS[11:36] AMSL: 308 ft
FS[11:36] Flaps: Position 1
FS[11:36] GS: 87 knots
FS[11:36] TAS: 92 knots
FS[11:36] IAS: 93 knots
FS[11:36] VS: 968 fpm
FS[11:36] Flaps: Position 2
FS[11:36] GS: 64 knots
FS[11:36] TAS: 70 knots
FS[11:36] IAS: 71 knots
FS[11:36] VS: 23 fpm
FS[11:36] Flaps: Position 3
FS[11:36] GS: 58 knots
FS[11:36] TAS: 66 knots
FS[11:36] IAS: 67 knots
FS[11:36] VS: -86 fpm
FS[11:36] Flaps: Position 4
FS[11:36] GS: 58 knots
FS[11:36] TAS: 66 knots
FS[11:36] IAS: 66 knots
FS[11:36] VS: -73 fpm
FS[11:38] NOTE: ----- LANDED -----
FS[11:38] Landing Rate: -106.88 fpm
FS[11:38] GS: 40 knots
FS[11:38] TAS: 47 knots
FS[11:38] IAS: 48 knots
FS[11:38] VS: -105 fpm
FS[11:38] FOB: 475 lbs
FS[11:38] Heading: 330°
FS[11:38] Pitch: 4°
FS[11:38] Bank: 0°
FS[11:38] Aircraft Weight: 4135.88 lbs
FS[11:38] Nearest Airport: Z71
FS[11:38] Distance: 1.07 miles
FS[11:38] Runway: ???
FS[11:38] Ground Surface: Water
FS[11:38] Ground Condition: Normal
FS[11:38] NOTE: Weather Report
FS[11:38] Wind Heading: 8°
FS[11:38] Wind Speed: 8 knots
FS[11:38] OAT: 1° C
FS[11:38] TAT: 1° C
FS[11:38] Precipitation: None
FS[11:38] Dew Point: 0° C
FS[11:38] Visibility: 49 miles
FS[11:38] METAR: No METAR available for Z71.
FS[11:38] View Mode: Virtual Cockpit
FS[11:38] Flaps: Position 0
FS[11:38] NOTE: Taxi started
FS[11:41] Engine 1: Stopped
FS[11:41] Light Data: Landing lights ON
FS[11:41] Light Data: Taxi lights ON
FS[11:41] Light Data: Recognition lights ON
FS[11:41] Light Data: Wing lights ON
FS[11:41] Light Data: Logo lights ON
FS[11:41] Light Data: Cabin lights ON
FS[11:41] Light Data: Navigation OFF
FS[11:41] Light Data: Beacon OFF
FS[11:41] Light Data: Landing lights OFF
FS[11:41] Light Data: Taxi lights OFF
FS[11:41] Light Data: Strobe lights OFF
FS[11:41] Light Data: Instrument lights OFF
FS[11:41] Light Data: Recognition lights OFF
FS[11:41] Light Data: Wing lights OFF
FS[11:41] Light Data: Logo lights OFF
FS[11:41] Light Data: Cabin lights OFF
FS[11:41] Distance to Arrival: 0.04 miles
FS[11:41] Gate: n/a
FS[11:41] NOTE: Flight Completed
FS[11:41] FS Aircraft: DHC-2A N001MM New Misty Amphibian
FS[11:41] FS Model: DHC2
FS[11:41] FS Type: DH Beaver
FS[11:41] FOB: 472 lbs
FS[11:41] Fuel Used: 98 lbs
FS[11:41] Flight Time: 00:25:55
FS[11:41] Flight Time (Dawn): 00:00:00
FS[11:41] Flight Time (Day): 00:25:55
FS[11:41] Flight Time (Dusk): 00:00:00
FS[11:41] Flight Time (Night): 00:00:00
FS[11:41] Total Landings: 1
FS[11:41] MaxSim Rate: 0x
FS[11:41] Cigar Box - 1.1.4.0
FS[11:41] ----- Flight Closed -----

Comments

Commenter Comment
Norm Richards You are flying single legs. To fly the tour legs you have to bid on them via/from inside the said tour. Norm

Route Map